sensor_id;sensor_type;location;lat;lon;timestamp;P1;durP1;ratioP1;P2;durP2;ratioP2
76867;SDS011;65837;45.478;11.060;2022-12-07T08:44:55;5.90;;;3.90;;
76867;SDS011;65837;45.478;11.060;2022-12-07T08:47:23;4.50;;;3.50;;
76867;SDS011;65837;45.478;11.060;2022-12-07T08:50:12;6.20;;;4.80;;
76867;SDS011;65837;45.478;11.060;2022-12-07T08:55:19;6.70;;;4.90;;
76867;SDS011;65837;45.478;11.060;2022-12-07T08:57:46;9.20;;;4.20;;
76867;SDS011;65837;45.478;11.060;2022-12-07T09:00:14;7.00;;;4.20;;
76867;SDS011;65837;45.478;11.060;2022-12-07T09:02:45;6.40;;;5.20;;
76867;SDS011;65837;45.478;11.060;2022-12-07T09:08:00;7.90;;;5.30;;
76867;SDS011;65837;45.478;11.060;2022-12-07T09:10:28;8.10;;;5.90;;
76867;SDS011;65837;45.478;11.060;2022-12-07T09:12:56;5.90;;;4.30;;
76867;SDS011;65837;45.478;11.060;2022-12-07T09:15:27;7.00;;;4.70;;
76867;SDS011;65837;45.478;11.060;2022-12-07T09:17:59;6.90;;;4.40;;
76867;SDS011;65837;45.478;11.060;2022-12-07T09:20:31;7.60;;;4.70;;
76867;SDS011;65837;45.478;11.060;2022-12-07T09:22:59;6.00;;;4.20;;
76867;SDS011;65837;45.478;11.060;2022-12-07T09:25:26;9.60;;;5.70;;
76867;SDS011;65837;45.478;11.060;2022-12-07T09:27:57;7.20;;;5.20;;
76867;SDS011;65837;45.478;11.060;2022-12-07T09:30:25;8.20;;;4.80;;
76867;SDS011;65837;45.478;11.060;2022-12-07T09:36:31;7.10;;;4.80;;
76867;SDS011;65837;45.478;11.060;2022-12-07T09:38:58;7.30;;;4.90;;
76867;SDS011;65837;45.478;11.060;2022-12-07T09:44:12;7.10;;;4.80;;
76867;SDS011;65837;45.478;11.060;2022-12-07T09:46:46;8.00;;;5.90;;
76867;SDS011;65837;45.478;11.060;2022-12-07T09:49:19;6.00;;;5.20;;
76867;SDS011;65837;45.478;11.060;2022-12-07T09:51:59;9.80;;;5.40;;
76867;SDS011;65837;45.478;11.060;2022-12-07T09:54:28;6.60;;;4.80;;
76867;SDS011;65837;45.478;11.060;2022-12-07T09:56:57;8.10;;;4.80;;
76867;SDS011;65837;45.478;11.060;2022-12-07T09:59:30;10.10;;;6.60;;
76867;SDS011;65837;45.478;11.060;2022-12-07T10:02:19;10.00;;;6.20;;
76867;SDS011;65837;45.478;11.060;2022-12-07T10:05:06;11.00;;;7.10;;
76867;SDS011;65837;45.478;11.060;2022-12-07T10:07:52;10.20;;;7.20;;
76867;SDS011;65837;45.478;11.060;2022-12-07T10:13:49;10.40;;;7.30;;
76867;SDS011;65837;45.478;11.060;2022-12-07T10:24:23;12.70;;;7.00;;
76867;SDS011;65837;45.478;11.060;2022-12-07T10:36:49;11.50;;;7.60;;
76867;SDS011;65837;45.478;11.060;2022-12-07T10:39:20;12.60;;;7.90;;
76867;SDS011;65837;45.478;11.060;2022-12-07T10:44:49;12.40;;;8.10;;
76867;SDS011;65837;45.478;11.060;2022-12-07T11:10:55;14.10;;;9.00;;
76867;SDS011;65837;45.478;11.060;2022-12-07T11:30:42;18.20;;;10.10;;
76867;SDS011;65837;45.478;11.060;2022-12-07T11:33:47;17.10;;;9.70;;
76867;SDS011;65837;45.478;11.060;2022-12-07T11:39:50;17.40;;;10.00;;
76867;SDS011;65837;45.478;11.060;2022-12-07T11:45:37;17.90;;;11.00;;
76867;SDS011;65837;45.478;11.060;2022-12-07T11:51:04;17.20;;;10.20;;
76867;SDS011;65837;45.478;11.060;2022-12-07T11:56:56;17.60;;;10.30;;
76867;SDS011;65837;45.478;11.060;2022-12-07T12:05:42;15.40;;;9.80;;
76867;SDS011;65837;45.478;11.060;2022-12-07T12:08:26;19.00;;;11.80;;
76867;SDS011;65837;45.478;11.060;2022-12-07T12:17:50;15.00;;;10.80;;
76867;SDS011;65837;45.478;11.060;2022-12-07T12:21:04;19.00;;;10.70;;
76867;SDS011;65837;45.478;11.060;2022-12-07T12:23:57;16.60;;;11.30;;
76867;SDS011;65837;45.478;11.060;2022-12-07T12:30:02;17.80;;;10.20;;
76867;SDS011;65837;45.478;11.060;2022-12-07T12:37:46;17.80;;;11.50;;
76867;SDS011;65837;45.478;11.060;2022-12-07T12:51:44;15.40;;;9.10;;
76867;SDS011;65837;45.478;11.060;2022-12-07T13:17:10;14.40;;;9.20;;
76867;SDS011;65837;45.478;11.060;2022-12-07T13:24:59;13.70;;;9.50;;
76867;SDS011;65837;45.478;11.060;2022-12-07T13:27:50;13.30;;;8.70;;
76867;SDS011;65837;45.478;11.060;2022-12-07T13:30:26;14.60;;;8.60;;
76867;SDS011;65837;45.478;11.060;2022-12-07T13:40:20;15.20;;;8.30;;
76867;SDS011;65837;45.478;11.060;2022-12-07T13:50:15;13.40;;;8.60;;
76867;SDS011;65837;45.478;11.060;2022-12-07T13:54:22;16.10;;;9.30;;
76867;SDS011;65837;45.478;11.060;2022-12-07T13:56:58;12.60;;;7.20;;
76867;SDS011;65837;45.478;11.060;2022-12-07T14:00:18;13.60;;;8.30;;
76867;SDS011;65837;45.478;11.060;2022-12-07T14:07:29;12.40;;;7.90;;
76867;SDS011;65837;45.478;11.060;2022-12-07T14:10:04;10.90;;;7.50;;
76867;SDS011;65837;45.478;11.060;2022-12-07T14:12:51;10.90;;;8.20;;
76867;SDS011;65837;45.478;11.060;2022-12-07T14:15:26;14.20;;;9.60;;
76867;SDS011;65837;45.478;11.060;2022-12-07T14:21:20;12.10;;;8.90;;
76867;SDS011;65837;45.478;11.060;2022-12-07T14:27:37;11.60;;;8.30;;
76867;SDS011;65837;45.478;11.060;2022-12-07T14:30:31;11.10;;;7.80;;
76867;SDS011;65837;45.478;11.060;2022-12-07T14:37:17;12.20;;;8.10;;
76867;SDS011;65837;45.478;11.060;2022-12-07T14:39:48;10.70;;;7.90;;
76867;SDS011;65837;45.478;11.060;2022-12-07T14:42:20;12.20;;;7.30;;
76867;SDS011;65837;45.478;11.060;2022-12-07T14:44:56;13.40;;;9.70;;
76867;SDS011;65837;45.478;11.060;2022-12-07T14:47:48;15.30;;;10.50;;
76867;SDS011;65837;45.478;11.060;2022-12-07T14:50:51;15.10;;;10.80;;
76867;SDS011;65837;45.478;11.060;2022-12-07T14:53:46;15.60;;;11.80;;
76867;SDS011;65837;45.478;11.060;2022-12-07T14:56:31;20.80;;;12.60;;
76867;SDS011;65837;45.478;11.060;2022-12-07T14:59:02;20.40;;;12.10;;
76867;SDS011;65837;45.478;11.060;2022-12-07T15:01:38;18.40;;;14.00;;
76867;SDS011;65837;45.478;11.060;2022-12-07T15:04:07;18.20;;;12.80;;
76867;SDS011;65837;45.478;11.060;2022-12-07T15:06:54;27.30;;;15.80;;
76867;SDS011;65837;45.478;11.060;2022-12-07T15:09:41;24.00;;;15.10;;
76867;SDS011;65837;45.478;11.060;2022-12-07T15:12:25;27.40;;;14.90;;
76867;SDS011;65837;45.478;11.060;2022-12-07T15:15:37;19.90;;;13.20;;
76867;SDS011;65837;45.478;11.060;2022-12-07T15:22:22;20.40;;;10.90;;
76867;SDS011;65837;45.478;11.060;2022-12-07T15:25:27;16.70;;;10.60;;
76867;SDS011;65837;45.478;11.060;2022-12-07T15:32:36;14.70;;;9.20;;
76867;SDS011;65837;45.478;11.060;2022-12-07T15:42:16;14.20;;;9.90;;
76867;SDS011;65837;45.478;11.060;2022-12-07T15:45:58;14.00;;;9.50;;
76867;SDS011;65837;45.478;11.060;2022-12-07T15:49:25;18.20;;;10.40;;
76867;SDS011;65837;45.478;11.060;2022-12-07T15:52:25;13.20;;;9.50;;
76867;SDS011;65837;45.478;11.060;2022-12-07T15:58:05;19.50;;;12.80;;
76867;SDS011;65837;45.478;11.060;2022-12-07T16:00:50;14.80;;;11.00;;
76867;SDS011;65837;45.478;11.060;2022-12-07T16:03:47;16.50;;;11.00;;
76867;SDS011;65837;45.478;11.060;2022-12-07T16:06:42;15.80;;;10.00;;
76867;SDS011;65837;45.478;11.060;2022-12-07T16:10:13;16.00;;;11.60;;
76867;SDS011;65837;45.478;11.060;2022-12-07T16:12:44;17.20;;;10.30;;
76867;SDS011;65837;45.478;11.060;2022-12-07T16:15:11;15.70;;;10.40;;
76867;SDS011;65837;45.478;11.060;2022-12-07T16:17:41;15.10;;;10.40;;
76867;SDS011;65837;45.478;11.060;2022-12-07T16:20:15;17.00;;;11.70;;
76867;SDS011;65837;45.478;11.060;2022-12-07T16:22:42;16.10;;;10.40;;
76867;SDS011;65837;45.478;11.060;2022-12-07T16:25:09;15.10;;;10.50;;
76867;SDS011;65837;45.478;11.060;2022-12-07T16:27:42;15.00;;;11.10;;
76867;SDS011;65837;45.478;11.060;2022-12-07T16:30:12;12.90;;;8.60;;
76867;SDS011;65837;45.478;11.060;2022-12-07T16:32:40;14.10;;;9.90;;
76867;SDS011;65837;45.478;11.060;2022-12-07T16:35:07;20.90;;;10.50;;
76867;SDS011;65837;45.478;11.060;2022-12-07T16:37:41;15.40;;;10.50;;
76867;SDS011;65837;45.478;11.060;2022-12-07T16:40:17;17.20;;;12.10;;
76867;SDS011;65837;45.478;11.060;2022-12-07T16:45:38;24.90;;;15.40;;
76867;SDS011;65837;45.478;11.060;2022-12-07T16:48:26;23.80;;;12.90;;
76867;SDS011;65837;45.478;11.060;2022-12-07T16:52:02;22.30;;;9.90;;
76867;SDS011;65837;45.478;11.060;2022-12-07T16:54:54;16.40;;;10.00;;
76867;SDS011;65837;45.478;11.060;2022-12-07T16:57:38;17.10;;;10.00;;
76867;SDS011;65837;45.478;11.060;2022-12-07T17:00:25;22.60;;;9.90;;
76867;SDS011;65837;45.478;11.060;2022-12-07T17:03:51;26.50;;;13.00;;
76867;SDS011;65837;45.478;11.060;2022-12-07T17:06:55;23.50;;;12.20;;
76867;SDS011;65837;45.478;11.060;2022-12-07T17:09:22;17.90;;;9.70;;
76867;SDS011;65837;45.478;11.060;2022-12-07T17:11:49;17.30;;;10.00;;
76867;SDS011;65837;45.478;11.060;2022-12-07T17:14:33;18.30;;;10.20;;
76867;SDS011;65837;45.478;11.060;2022-12-07T17:18:04;18.70;;;10.10;;
76867;SDS011;65837;45.478;11.060;2022-12-07T17:20:32;18.10;;;10.40;;
76867;SDS011;65837;45.478;11.060;2022-12-07T17:23:21;23.50;;;12.10;;
76867;SDS011;65837;45.478;11.060;2022-12-07T17:25:50;21.20;;;10.70;;
76867;SDS011;65837;45.478;11.060;2022-12-07T17:28:25;17.30;;;10.00;;
76867;SDS011;65837;45.478;11.060;2022-12-07T17:30:58;15.30;;;9.20;;
76867;SDS011;65837;45.478;11.060;2022-12-07T17:33:27;20.30;;;10.20;;
76867;SDS011;65837;45.478;11.060;2022-12-07T17:36:10;19.00;;;9.10;;
76867;SDS011;65837;45.478;11.060;2022-12-07T17:38:48;13.60;;;8.10;;
76867;SDS011;65837;45.478;11.060;2022-12-07T17:41:20;16.50;;;9.20;;
76867;SDS011;65837;45.478;11.060;2022-12-07T17:44:18;14.30;;;8.90;;
76867;SDS011;65837;45.478;11.060;2022-12-07T17:52:39;17.10;;;9.80;;
76867;SDS011;65837;45.478;11.060;2022-12-07T17:55:24;17.70;;;8.50;;
76867;SDS011;65837;45.478;11.060;2022-12-07T18:00:32;12.10;;;7.90;;
76867;SDS011;65837;45.478;11.060;2022-12-07T18:03:14;13.80;;;7.20;;
76867;SDS011;65837;45.478;11.060;2022-12-07T18:05:41;11.70;;;7.30;;
76867;SDS011;65837;45.478;11.060;2022-12-07T18:08:08;11.00;;;6.70;;
76867;SDS011;65837;45.478;11.060;2022-12-07T18:10:57;14.30;;;8.20;;
76867;SDS011;65837;45.478;11.060;2022-12-07T18:13:32;13.60;;;8.50;;
76867;SDS011;65837;45.478;11.060;2022-12-07T18:16:04;19.00;;;11.30;;
76867;SDS011;65837;45.478;11.060;2022-12-07T18:18:32;15.10;;;8.80;;
76867;SDS011;65837;45.478;11.060;2022-12-07T18:24:33;14.00;;;8.20;;
76867;SDS011;65837;45.478;11.060;2022-12-07T18:27:13;18.50;;;10.50;;
76867;SDS011;65837;45.478;11.060;2022-12-07T18:29:41;52.60;;;25.60;;
76867;SDS011;65837;45.478;11.060;2022-12-07T18:33:27;35.00;;;18.70;;
76867;SDS011;65837;45.478;11.060;2022-12-07T18:36:26;29.60;;;15.60;;
76867;SDS011;65837;45.478;11.060;2022-12-07T18:38:54;23.70;;;14.10;;
76867;SDS011;65837;45.478;11.060;2022-12-07T18:41:23;20.70;;;12.80;;
76867;SDS011;65837;45.478;11.060;2022-12-07T18:43:59;16.80;;;11.60;;
76867;SDS011;65837;45.478;11.060;2022-12-07T18:46:34;18.50;;;11.40;;
76867;SDS011;65837;45.478;11.060;2022-12-07T18:49:54;19.80;;;11.40;;
76867;SDS011;65837;45.478;11.060;2022-12-07T18:53:11;17.60;;;11.20;;
76867;SDS011;65837;45.478;11.060;2022-12-07T18:55:47;18.50;;;11.30;;
76867;SDS011;65837;45.478;11.060;2022-12-07T18:58:51;21.50;;;13.00;;
76867;SDS011;65837;45.478;11.060;2022-12-07T19:01:55;19.10;;;9.90;;
76867;SDS011;65837;45.478;11.060;2022-12-07T19:04:33;15.10;;;8.70;;
76867;SDS011;65837;45.478;11.060;2022-12-07T19:12:47;16.80;;;10.90;;
76867;SDS011;65837;45.478;11.060;2022-12-07T19:15:27;18.20;;;10.70;;
76867;SDS011;65837;45.478;11.060;2022-12-07T19:18:04;17.20;;;10.80;;
76867;SDS011;65837;45.478;11.060;2022-12-07T19:21:37;20.30;;;11.30;;
76867;SDS011;65837;45.478;11.060;2022-12-07T19:24:18;20.50;;;13.90;;
76867;SDS011;65837;45.478;11.060;2022-12-07T19:27:46;16.10;;;11.20;;
76867;SDS011;65837;45.478;11.060;2022-12-07T19:30:20;14.60;;;9.70;;
76867;SDS011;65837;45.478;11.060;2022-12-07T19:33:35;15.50;;;9.00;;
76867;SDS011;65837;45.478;11.060;2022-12-07T19:36:08;13.90;;;7.90;;
76867;SDS011;65837;45.478;11.060;2022-12-07T19:42:41;16.90;;;8.70;;
76867;SDS011;65837;45.478;11.060;2022-12-07T19:45:07;15.90;;;9.30;;
76867;SDS011;65837;45.478;11.060;2022-12-07T19:51:49;21.80;;;11.60;;
76867;SDS011;65837;45.478;11.060;2022-12-07T19:55:14;23.50;;;13.50;;
76867;SDS011;65837;45.478;11.060;2022-12-07T19:57:40;22.20;;;12.30;;
76867;SDS011;65837;45.478;11.060;2022-12-07T20:00:08;20.80;;;12.90;;
76867;SDS011;65837;45.478;11.060;2022-12-07T20:07:09;22.50;;;13.40;;
76867;SDS011;65837;45.478;11.060;2022-12-07T20:09:32;20.50;;;13.50;;
76867;SDS011;65837;45.478;11.060;2022-12-07T20:19:13;22.80;;;14.10;;
76867;SDS011;65837;45.478;11.060;2022-12-07T20:29:12;23.80;;;14.40;;
76867;SDS011;65837;45.478;11.060;2022-12-07T20:31:50;24.70;;;15.10;;
76867;SDS011;65837;45.478;11.060;2022-12-07T20:34:27;20.80;;;14.60;;
76867;SDS011;65837;45.478;11.060;2022-12-07T20:38:02;20.50;;;12.90;;
76867;SDS011;65837;45.478;11.060;2022-12-07T20:41:10;24.50;;;15.70;;
76867;SDS011;65837;45.478;11.060;2022-12-07T20:44:01;21.40;;;14.40;;
76867;SDS011;65837;45.478;11.060;2022-12-07T20:49:51;28.00;;;17.40;;
76867;SDS011;65837;45.478;11.060;2022-12-07T20:53:04;23.30;;;15.30;;
76867;SDS011;65837;45.478;11.060;2022-12-07T20:59:18;30.20;;;16.10;;
76867;SDS011;65837;45.478;11.060;2022-12-07T21:02:37;23.90;;;13.60;;
76867;SDS011;65837;45.478;11.060;2022-12-07T21:05:48;22.10;;;14.30;;
76867;SDS011;65837;45.478;11.060;2022-12-07T21:08:25;27.40;;;15.50;;
76867;SDS011;65837;45.478;11.060;2022-12-07T21:10:51;27.70;;;15.30;;
76867;SDS011;65837;45.478;11.060;2022-12-07T21:13:21;23.40;;;15.00;;
76867;SDS011;65837;45.478;11.060;2022-12-07T21:15:50;25.50;;;16.40;;
76867;SDS011;65837;45.478;11.060;2022-12-07T21:18:37;22.60;;;15.00;;
76867;SDS011;65837;45.478;11.060;2022-12-07T21:22:45;26.10;;;16.40;;
76867;SDS011;65837;45.478;11.060;2022-12-07T21:25:17;35.10;;;19.40;;
76867;SDS011;65837;45.478;11.060;2022-12-07T21:27:58;33.00;;;19.60;;
76867;SDS011;65837;45.478;11.060;2022-12-07T21:30:48;24.00;;;15.20;;
76867;SDS011;65837;45.478;11.060;2022-12-07T21:33:34;24.50;;;14.40;;
76867;SDS011;65837;45.478;11.060;2022-12-07T21:36:14;20.90;;;12.90;;
76867;SDS011;65837;45.478;11.060;2022-12-07T21:40:10;11.60;;;6.70;;
76867;SDS011;65837;45.478;11.060;2022-12-07T21:42:42;10.40;;;4.30;;
76867;SDS011;65837;45.478;11.060;2022-12-07T21:45:12;6.20;;;4.10;;
76867;SDS011;65837;45.478;11.060;2022-12-07T21:47:49;3.50;;;2.80;;
76867;SDS011;65837;45.478;11.060;2022-12-07T21:50:36;4.50;;;2.90;;
76867;SDS011;65837;45.478;11.060;2022-12-07T21:53:48;4.00;;;2.50;;
76867;SDS011;65837;45.478;11.060;2022-12-07T21:57:00;4.40;;;2.40;;
76867;SDS011;65837;45.478;11.060;2022-12-07T22:02:18;4.90;;;3.60;;
76867;SDS011;65837;45.478;11.060;2022-12-07T22:04:45;5.70;;;2.90;;
76867;SDS011;65837;45.478;11.060;2022-12-07T22:07:22;4.30;;;2.70;;
76867;SDS011;65837;45.478;11.060;2022-12-07T22:14:22;3.70;;;2.80;;
76867;SDS011;65837;45.478;11.060;2022-12-07T22:18:06;4.00;;;3.10;;
76867;SDS011;65837;45.478;11.060;2022-12-07T22:21:31;16.50;;;8.20;;
76867;SDS011;65837;45.478;11.060;2022-12-07T22:24:03;14.70;;;8.30;;
76867;SDS011;65837;45.478;11.060;2022-12-07T22:32:31;15.70;;;9.50;;
76867;SDS011;65837;45.478;11.060;2022-12-07T22:39:31;19.40;;;12.90;;
76867;SDS011;65837;45.478;11.060;2022-12-07T22:48:40;21.50;;;14.10;;
76867;SDS011;65837;45.478;11.060;2022-12-07T22:51:06;20.90;;;13.70;;
76867;SDS011;65837;45.478;11.060;2022-12-07T22:53:36;21.60;;;14.40;;
76867;SDS011;65837;45.478;11.060;2022-12-07T22:56:13;20.00;;;14.20;;
76867;SDS011;65837;45.478;11.060;2022-12-07T23:03:02;18.50;;;12.40;;
76867;SDS011;65837;45.478;11.060;2022-12-07T23:05:28;18.70;;;12.50;;
76867;SDS011;65837;45.478;11.060;2022-12-07T23:07:56;18.90;;;12.40;;
76867;SDS011;65837;45.478;11.060;2022-12-07T23:10:22;18.30;;;12.10;;
76867;SDS011;65837;45.478;11.060;2022-12-07T23:12:55;19.50;;;12.90;;
76867;SDS011;65837;45.478;11.060;2022-12-07T23:15:55;20.50;;;13.50;;
76867;SDS011;65837;45.478;11.060;2022-12-07T23:24:11;14.90;;;11.00;;
76867;SDS011;65837;45.478;11.060;2022-12-07T23:26:51;17.80;;;12.20;;
76867;SDS011;65837;45.478;11.060;2022-12-07T23:37:17;15.20;;;10.10;;
76867;SDS011;65837;45.478;11.060;2022-12-07T23:43:06;17.30;;;10.60;;
76867;SDS011;65837;45.478;11.060;2022-12-07T23:45:35;13.20;;;8.70;;
76867;SDS011;65837;45.478;11.060;2022-12-07T23:51:35;14.50;;;9.60;;
76867;SDS011;65837;45.478;11.060;2022-12-07T23:57:06;3.60;;;3.20;;
